sensor_id;sensor_type;location;lat;lon;timestamp;P1;durP1;ratioP1;P2;durP2;ratioP2
46222;SDS011;31943;51.410;7.564;2022-10-31T00:01:36;7.45;;;4.20;;
46222;SDS011;31943;51.410;7.564;2022-10-31T00:04:31;8.88;;;3.90;;
46222;SDS011;31943;51.410;7.564;2022-10-31T00:07:17;8.50;;;4.30;;
46222;SDS011;31943;51.410;7.564;2022-10-31T00:10:26;7.88;;;3.92;;
46222;SDS011;31943;51.410;7.564;2022-10-31T00:13:27;8.90;;;5.20;;
46222;SDS011;31943;51.410;7.564;2022-10-31T00:16:21;7.85;;;4.72;;
46222;SDS011;31943;51.410;7.564;2022-10-31T00:19:17;7.75;;;4.20;;
46222;SDS011;31943;51.410;7.564;2022-10-31T00:22:23;10.25;;;4.65;;
46222;SDS011;31943;51.410;7.564;2022-10-31T00:25:13;6.15;;;3.92;;
46222;SDS011;31943;51.410;7.564;2022-10-31T00:28:06;9.57;;;4.25;;
46222;SDS011;31943;51.410;7.564;2022-10-31T00:45:14;8.32;;;4.25;;
46222;SDS011;31943;51.410;7.564;2022-10-31T00:48:30;10.10;;;4.55;;
46222;SDS011;31943;51.410;7.564;2022-10-31T00:51:26;10.38;;;4.72;;
46222;SDS011;31943;51.410;7.564;2022-10-31T00:54:41;9.65;;;4.88;;
46222;SDS011;31943;51.410;7.564;2022-10-31T01:10:59;8.15;;;4.28;;
46222;SDS011;31943;51.410;7.564;2022-10-31T01:13:56;10.23;;;4.85;;
46222;SDS011;31943;51.410;7.564;2022-10-31T01:16:53;8.60;;;4.80;;
46222;SDS011;31943;51.410;7.564;2022-10-31T01:19:40;8.07;;;4.22;;
46222;SDS011;31943;51.410;7.564;2022-10-31T01:22:26;8.07;;;4.25;;
46222;SDS011;31943;51.410;7.564;2022-10-31T01:25:15;8.18;;;3.67;;
46222;SDS011;31943;51.410;7.564;2022-10-31T01:37:42;9.00;;;4.75;;
46222;SDS011;31943;51.410;7.564;2022-10-31T01:40:30;10.38;;;4.50;;
46222;SDS011;31943;51.410;7.564;2022-10-31T01:43:19;8.02;;;4.68;;
46222;SDS011;31943;51.410;7.564;2022-10-31T01:46:05;9.32;;;4.78;;
46222;SDS011;31943;51.410;7.564;2022-10-31T01:49:30;9.55;;;4.35;;
46222;SDS011;31943;51.410;7.564;2022-10-31T01:55:00;9.32;;;4.32;;
46222;SDS011;31943;51.410;7.564;2022-10-31T01:58:05;10.60;;;5.15;;
46222;SDS011;31943;51.410;7.564;2022-10-31T02:00:56;9.55;;;5.55;;
46222;SDS011;31943;51.410;7.564;2022-10-31T02:03:53;8.85;;;5.18;;
46222;SDS011;31943;51.410;7.564;2022-10-31T02:06:51;12.18;;;5.70;;
46222;SDS011;31943;51.410;7.564;2022-10-31T02:23:14;8.93;;;5.95;;
46222;SDS011;31943;51.410;7.564;2022-10-31T02:26:46;9.25;;;5.15;;
46222;SDS011;31943;51.410;7.564;2022-10-31T02:36:35;7.47;;;5.03;;
46222;SDS011;31943;51.410;7.564;2022-10-31T02:39:26;8.25;;;4.93;;
46222;SDS011;31943;51.410;7.564;2022-10-31T02:42:25;11.10;;;5.75;;
46222;SDS011;31943;51.410;7.564;2022-10-31T02:45:23;7.65;;;5.05;;
46222;SDS011;31943;51.410;7.564;2022-10-31T02:48:19;11.77;;;5.57;;
46222;SDS011;31943;51.410;7.564;2022-10-31T03:07:35;7.53;;;5.68;;
46222;SDS011;31943;51.410;7.564;2022-10-31T03:10:35;6.95;;;4.60;;
46222;SDS011;31943;51.410;7.564;2022-10-31T03:13:33;9.45;;;5.20;;
46222;SDS011;31943;51.410;7.564;2022-10-31T03:16:45;6.28;;;4.97;;
46222;SDS011;31943;51.410;7.564;2022-10-31T03:19:53;8.32;;;4.60;;
46222;SDS011;31943;51.410;7.564;2022-10-31T03:23:01;8.35;;;4.50;;
46222;SDS011;31943;51.410;7.564;2022-10-31T03:25:50;6.95;;;5.07;;
46222;SDS011;31943;51.410;7.564;2022-10-31T03:28:57;9.07;;;4.60;;
46222;SDS011;31943;51.410;7.564;2022-10-31T03:31:57;7.78;;;4.47;;
46222;SDS011;31943;51.410;7.564;2022-10-31T03:34:50;10.02;;;5.18;;
46222;SDS011;31943;51.410;7.564;2022-10-31T03:37:46;12.73;;;4.82;;
46222;SDS011;31943;51.410;7.564;2022-10-31T03:40:34;5.97;;;4.40;;
46222;SDS011;31943;51.410;7.564;2022-10-31T03:43:26;9.48;;;5.05;;
46222;SDS011;31943;51.410;7.564;2022-10-31T03:46:20;9.30;;;5.80;;
46222;SDS011;31943;51.410;7.564;2022-10-31T03:49:06;7.03;;;5.10;;
46222;SDS011;31943;51.410;7.564;2022-10-31T03:52:02;12.10;;;5.40;;
46222;SDS011;31943;51.410;7.564;2022-10-31T03:55:37;8.13;;;4.78;;
46222;SDS011;31943;51.410;7.564;2022-10-31T03:58:25;9.13;;;5.50;;
46222;SDS011;31943;51.410;7.564;2022-10-31T04:08:21;12.20;;;5.22;;
46222;SDS011;31943;51.410;7.564;2022-10-31T04:11:14;8.77;;;4.95;;
46222;SDS011;31943;51.410;7.564;2022-10-31T04:17:31;7.43;;;5.43;;
46222;SDS011;31943;51.410;7.564;2022-10-31T05:36:44;9.82;;;5.00;;
46222;SDS011;31943;51.410;7.564;2022-10-31T05:39:29;8.05;;;5.15;;
46222;SDS011;31943;51.410;7.564;2022-10-31T05:42:35;7.82;;;4.75;;
46222;SDS011;31943;51.410;7.564;2022-10-31T05:48:49;11.70;;;4.95;;
46222;SDS011;31943;51.410;7.564;2022-10-31T05:52:03;8.10;;;4.50;;
46222;SDS011;31943;51.410;7.564;2022-10-31T06:02:03;6.82;;;4.95;;
46222;SDS011;31943;51.410;7.564;2022-10-31T06:05:08;6.85;;;4.63;;
46222;SDS011;31943;51.410;7.564;2022-10-31T06:08:06;6.95;;;4.55;;
46222;SDS011;31943;51.410;7.564;2022-10-31T06:11:02;10.35;;;4.63;;
46222;SDS011;31943;51.410;7.564;2022-10-31T06:13:51;10.30;;;5.20;;
46222;SDS011;31943;51.410;7.564;2022-10-31T06:16:44;10.20;;;4.68;;
46222;SDS011;31943;51.410;7.564;2022-10-31T06:19:32;7.30;;;4.93;;
46222;SDS011;31943;51.410;7.564;2022-10-31T06:22:27;11.35;;;5.10;;
46222;SDS011;31943;51.410;7.564;2022-10-31T06:25:45;9.32;;;4.72;;
46222;SDS011;31943;51.410;7.564;2022-10-31T06:31:58;7.80;;;5.55;;
46222;SDS011;31943;51.410;7.564;2022-10-31T06:35:09;7.85;;;4.10;;
46222;SDS011;31943;51.410;7.564;2022-10-31T07:06:40;11.20;;;5.45;;
46222;SDS011;31943;51.410;7.564;2022-10-31T07:09:28;8.45;;;5.55;;
46222;SDS011;31943;51.410;7.564;2022-10-31T07:12:17;9.90;;;4.90;;
46222;SDS011;31943;51.410;7.564;2022-10-31T07:15:10;9.25;;;5.18;;
46222;SDS011;31943;51.410;7.564;2022-10-31T07:18:20;10.50;;;5.03;;
46222;SDS011;31943;51.410;7.564;2022-10-31T07:24:23;6.72;;;4.82;;
46222;SDS011;31943;51.410;7.564;2022-10-31T07:27:28;7.25;;;4.80;;
46222;SDS011;31943;51.410;7.564;2022-10-31T09:06:27;12.43;;;9.05;;
46222;SDS011;31943;51.410;7.564;2022-10-31T09:09:10;14.02;;;8.85;;
46222;SDS011;31943;51.410;7.564;2022-10-31T09:12:09;16.25;;;9.93;;
46222;SDS011;31943;51.410;7.564;2022-10-31T09:19:07;18.67;;;10.88;;
46222;SDS011;31943;51.410;7.564;2022-10-31T09:22:20;15.73;;;10.88;;
46222;SDS011;31943;51.410;7.564;2022-10-31T09:25:27;17.65;;;11.93;;
46222;SDS011;31943;51.410;7.564;2022-10-31T09:28:23;15.93;;;11.68;;
46222;SDS011;31943;51.410;7.564;2022-10-31T09:31:42;19.77;;;12.57;;
46222;SDS011;31943;51.410;7.564;2022-10-31T10:03:38;14.52;;;8.82;;
46222;SDS011;31943;51.410;7.564;2022-10-31T10:25:28;17.48;;;11.27;;
46222;SDS011;31943;51.410;7.564;2022-10-31T10:28:27;18.70;;;11.25;;
46222;SDS011;31943;51.410;7.564;2022-10-31T10:31:19;25.05;;;12.50;;
46222;SDS011;31943;51.410;7.564;2022-10-31T10:34:13;22.45;;;12.00;;
46222;SDS011;31943;51.410;7.564;2022-10-31T10:37:56;20.00;;;13.07;;
46222;SDS011;31943;51.410;7.564;2022-10-31T11:19:27;19.00;;;11.82;;
46222;SDS011;31943;51.410;7.564;2022-10-31T11:22:46;21.83;;;12.98;;
46222;SDS011;31943;51.410;7.564;2022-10-31T11:26:22;22.77;;;12.65;;
46222;SDS011;31943;51.410;7.564;2022-10-31T11:29:12;20.85;;;11.75;;
46222;SDS011;31943;51.410;7.564;2022-10-31T13:36:14;13.43;;;6.00;;
46222;SDS011;31943;51.410;7.564;2022-10-31T13:39:39;11.70;;;5.95;;
46222;SDS011;31943;51.410;7.564;2022-10-31T13:43:18;14.23;;;5.97;;
46222;SDS011;31943;51.410;7.564;2022-10-31T13:46:21;13.23;;;6.97;;
46222;SDS011;31943;51.410;7.564;2022-10-31T13:49:21;12.88;;;6.22;;
46222;SDS011;31943;51.410;7.564;2022-10-31T13:52:15;15.02;;;7.07;;
46222;SDS011;31943;51.410;7.564;2022-10-31T13:55:15;8.93;;;6.60;;
46222;SDS011;31943;51.410;7.564;2022-10-31T13:58:26;18.08;;;6.13;;
46222;SDS011;31943;51.410;7.564;2022-10-31T14:01:15;12.85;;;6.68;;
46222;SDS011;31943;51.410;7.564;2022-10-31T14:04:03;13.88;;;5.93;;
46222;SDS011;31943;51.410;7.564;2022-10-31T14:06:53;14.52;;;6.15;;
46222;SDS011;31943;51.410;7.564;2022-10-31T14:09:53;12.85;;;6.25;;
46222;SDS011;31943;51.410;7.564;2022-10-31T14:12:40;12.45;;;6.00;;
46222;SDS011;31943;51.410;7.564;2022-10-31T14:15:28;15.13;;;6.32;;
46222;SDS011;31943;51.410;7.564;2022-10-31T14:18:19;12.23;;;6.57;;
46222;SDS011;31943;51.410;7.564;2022-10-31T14:21:15;14.82;;;6.22;;
46222;SDS011;31943;51.410;7.564;2022-10-31T14:24:14;15.43;;;6.65;;
46222;SDS011;31943;51.410;7.564;2022-10-31T14:27:35;9.95;;;5.93;;
46222;SDS011;31943;51.410;7.564;2022-10-31T14:30:29;9.40;;;6.07;;
46222;SDS011;31943;51.410;7.564;2022-10-31T14:33:17;11.60;;;5.47;;
46222;SDS011;31943;51.410;7.564;2022-10-31T14:36:04;8.30;;;5.97;;
46222;SDS011;31943;51.410;7.564;2022-10-31T14:38:54;12.50;;;6.30;;
46222;SDS011;31943;51.410;7.564;2022-10-31T14:44:47;13.43;;;6.57;;
46222;SDS011;31943;51.410;7.564;2022-10-31T14:47:55;10.27;;;6.03;;
46222;SDS011;31943;51.410;7.564;2022-10-31T14:50:58;11.35;;;5.85;;
46222;SDS011;31943;51.410;7.564;2022-10-31T14:53:46;11.23;;;6.03;;
46222;SDS011;31943;51.410;7.564;2022-10-31T14:56:34;14.38;;;6.57;;
46222;SDS011;31943;51.410;7.564;2022-10-31T14:59:24;9.05;;;5.63;;
46222;SDS011;31943;51.410;7.564;2022-10-31T15:02:14;11.98;;;5.45;;
46222;SDS011;31943;51.410;7.564;2022-10-31T15:05:06;13.45;;;6.07;;
46222;SDS011;31943;51.410;7.564;2022-10-31T15:07:53;11.50;;;5.60;;
46222;SDS011;31943;51.410;7.564;2022-10-31T15:10:39;12.35;;;5.25;;
46222;SDS011;31943;51.410;7.564;2022-10-31T15:13:29;8.15;;;4.68;;
46222;SDS011;31943;51.410;7.564;2022-10-31T15:16:14;10.48;;;5.40;;
46222;SDS011;31943;51.410;7.564;2022-10-31T15:19:03;11.95;;;5.28;;
46222;SDS011;31943;51.410;7.564;2022-10-31T15:21:51;11.25;;;5.68;;
46222;SDS011;31943;51.410;7.564;2022-10-31T15:24:37;11.88;;;5.75;;
46222;SDS011;31943;51.410;7.564;2022-10-31T15:27:22;12.50;;;5.00;;
46222;SDS011;31943;51.410;7.564;2022-10-31T15:30:15;10.30;;;5.65;;
46222;SDS011;31943;51.410;7.564;2022-10-31T15:33:02;14.65;;;5.97;;
46222;SDS011;31943;51.410;7.564;2022-10-31T15:36:00;12.95;;;5.35;;
46222;SDS011;31943;51.410;7.564;2022-10-31T15:38:46;7.03;;;5.18;;
46222;SDS011;31943;51.410;7.564;2022-10-31T15:41:31;7.45;;;5.10;;
46222;SDS011;31943;51.410;7.564;2022-10-31T15:44:19;11.60;;;5.30;;
46222;SDS011;31943;51.410;7.564;2022-10-31T15:47:07;10.98;;;4.82;;
46222;SDS011;31943;51.410;7.564;2022-10-31T15:49:59;11.30;;;6.90;;
46222;SDS011;31943;51.410;7.564;2022-10-31T15:52:47;14.02;;;9.20;;
46222;SDS011;31943;51.410;7.564;2022-10-31T15:55:32;11.68;;;6.75;;
46222;SDS011;31943;51.410;7.564;2022-10-31T15:58:29;10.32;;;5.78;;
46222;SDS011;31943;51.410;7.564;2022-10-31T16:01:23;9.57;;;4.40;;
46222;SDS011;31943;51.410;7.564;2022-10-31T16:04:19;10.82;;;4.90;;
46222;SDS011;31943;51.410;7.564;2022-10-31T16:07:12;8.75;;;3.90;;
46222;SDS011;31943;51.410;7.564;2022-10-31T16:10:02;6.88;;;3.72;;
46222;SDS011;31943;51.410;7.564;2022-10-31T16:12:47;11.15;;;3.83;;
46222;SDS011;31943;51.410;7.564;2022-10-31T16:15:32;9.60;;;3.47;;
46222;SDS011;31943;51.410;7.564;2022-10-31T16:18:17;9.45;;;3.40;;
46222;SDS011;31943;51.410;7.564;2022-10-31T16:21:02;8.02;;;3.33;;
46222;SDS011;31943;51.410;7.564;2022-10-31T16:23:47;9.05;;;3.17;;
46222;SDS011;31943;51.410;7.564;2022-10-31T16:26:38;10.23;;;3.63;;
46222;SDS011;31943;51.410;7.564;2022-10-31T16:29:26;11.30;;;3.55;;
46222;SDS011;31943;51.410;7.564;2022-10-31T16:32:25;10.35;;;3.65;;
46222;SDS011;31943;51.410;7.564;2022-10-31T16:35:17;7.80;;;3.70;;
46222;SDS011;31943;51.410;7.564;2022-10-31T16:38:07;6.72;;;2.92;;
46222;SDS011;31943;51.410;7.564;2022-10-31T16:40:52;8.80;;;3.03;;
46222;SDS011;31943;51.410;7.564;2022-10-31T16:43:38;10.75;;;3.50;;
46222;SDS011;31943;51.410;7.564;2022-10-31T16:46:23;9.70;;;2.95;;
46222;SDS011;31943;51.410;7.564;2022-10-31T16:49:09;9.43;;;3.08;;
46222;SDS011;31943;51.410;7.564;2022-10-31T16:51:54;8.20;;;3.53;;
46222;SDS011;31943;51.410;7.564;2022-10-31T16:54:39;10.20;;;3.03;;
46222;SDS011;31943;51.410;7.564;2022-10-31T16:57:24;8.23;;;2.70;;
46222;SDS011;31943;51.410;7.564;2022-10-31T17:00:15;10.77;;;3.08;;
46222;SDS011;31943;51.410;7.564;2022-10-31T17:03:01;10.32;;;2.97;;
46222;SDS011;31943;51.410;7.564;2022-10-31T17:05:45;8.77;;;2.90;;
46222;SDS011;31943;51.410;7.564;2022-10-31T17:08:30;13.48;;;3.35;;
46222;SDS011;31943;51.410;7.564;2022-10-31T17:11:15;7.80;;;3.40;;
46222;SDS011;31943;51.410;7.564;2022-10-31T17:14:02;10.48;;;3.17;;
46222;SDS011;31943;51.410;7.564;2022-10-31T17:16:48;8.57;;;3.20;;
46222;SDS011;31943;51.410;7.564;2022-10-31T17:19:33;7.40;;;2.90;;
46222;SDS011;31943;51.410;7.564;2022-10-31T17:22:18;8.85;;;2.70;;
46222;SDS011;31943;51.410;7.564;2022-10-31T17:25:02;8.45;;;2.65;;
46222;SDS011;31943;51.410;7.564;2022-10-31T17:27:47;9.98;;;2.85;;
46222;SDS011;31943;51.410;7.564;2022-10-31T17:30:32;5.28;;;2.85;;
46222;SDS011;31943;51.410;7.564;2022-10-31T17:33:18;12.48;;;2.80;;
46222;SDS011;31943;51.410;7.564;2022-10-31T17:36:03;13.60;;;3.10;;
46222;SDS011;31943;51.410;7.564;2022-10-31T17:38:48;10.23;;;3.30;;
46222;SDS011;31943;51.410;7.564;2022-10-31T17:41:32;10.95;;;2.72;;
46222;SDS011;31943;51.410;7.564;2022-10-31T17:44:16;9.45;;;2.83;;
46222;SDS011;31943;51.410;7.564;2022-10-31T17:47:01;11.18;;;3.17;;
46222;SDS011;31943;51.410;7.564;2022-10-31T17:49:49;5.00;;;2.78;;
46222;SDS011;31943;51.410;7.564;2022-10-31T17:52:33;12.35;;;3.50;;
46222;SDS011;31943;51.410;7.564;2022-10-31T17:55:18;7.95;;;2.95;;
46222;SDS011;31943;51.410;7.564;2022-10-31T17:58:02;8.55;;;3.03;;
46222;SDS011;31943;51.410;7.564;2022-10-31T18:00:47;10.82;;;2.80;;
46222;SDS011;31943;51.410;7.564;2022-10-31T18:03:32;7.90;;;2.85;;
46222;SDS011;31943;51.410;7.564;2022-10-31T18:06:18;8.57;;;2.88;;
46222;SDS011;31943;51.410;7.564;2022-10-31T18:09:03;11.93;;;3.20;;
46222;SDS011;31943;51.410;7.564;2022-10-31T18:11:47;6.68;;;2.63;;
46222;SDS011;31943;51.410;7.564;2022-10-31T18:14:31;6.28;;;2.72;;
46222;SDS011;31943;51.410;7.564;2022-10-31T18:17:16;8.18;;;2.40;;
46222;SDS011;31943;51.410;7.564;2022-10-31T18:20:00;9.63;;;3.05;;
46222;SDS011;31943;51.410;7.564;2022-10-31T18:22:46;6.85;;;2.65;;
46222;SDS011;31943;51.410;7.564;2022-10-31T18:25:30;9.05;;;2.92;;
46222;SDS011;31943;51.410;7.564;2022-10-31T18:28:16;9.85;;;2.70;;
46222;SDS011;31943;51.410;7.564;2022-10-31T18:31:01;5.05;;;2.42;;
46222;SDS011;31943;51.410;7.564;2022-10-31T18:33:45;6.13;;;3.22;;
46222;SDS011;31943;51.410;7.564;2022-10-31T18:36:30;6.05;;;2.28;;
46222;SDS011;31943;51.410;7.564;2022-10-31T18:39:16;7.95;;;3.15;;
46222;SDS011;31943;51.410;7.564;2022-10-31T18:42:00;8.93;;;2.90;;
46222;SDS011;31943;51.410;7.564;2022-10-31T18:44:45;7.78;;;2.92;;
46222;SDS011;31943;51.410;7.564;2022-10-31T18:47:29;13.65;;;2.75;;
46222;SDS011;31943;51.410;7.564;2022-10-31T18:50:16;4.95;;;2.63;;
46222;SDS011;31943;51.410;7.564;2022-10-31T18:53:03;6.93;;;2.90;;
46222;SDS011;31943;51.410;7.564;2022-10-31T18:55:53;7.70;;;3.08;;
46222;SDS011;31943;51.410;7.564;2022-10-31T18:58:38;10.18;;;3.00;;
46222;SDS011;31943;51.410;7.564;2022-10-31T19:01:22;8.43;;;2.85;;
46222;SDS011;31943;51.410;7.564;2022-10-31T19:04:10;8.52;;;2.88;;
46222;SDS011;31943;51.410;7.564;2022-10-31T19:06:54;9.45;;;3.40;;
46222;SDS011;31943;51.410;7.564;2022-10-31T19:09:39;7.47;;;2.90;;
46222;SDS011;31943;51.410;7.564;2022-10-31T19:12:25;9.93;;;3.22;;
46222;SDS011;31943;51.410;7.564;2022-10-31T19:15:10;5.47;;;2.60;;
46222;SDS011;31943;51.410;7.564;2022-10-31T19:17:57;9.68;;;3.08;;
46222;SDS011;31943;51.410;7.564;2022-10-31T19:20:42;6.93;;;2.78;;
46222;SDS011;31943;51.410;7.564;2022-10-31T19:23:27;6.95;;;2.55;;
46222;SDS011;31943;51.410;7.564;2022-10-31T19:26:13;14.82;;;3.25;;
46222;SDS011;31943;51.410;7.564;2022-10-31T19:29:00;9.45;;;2.75;;
46222;SDS011;31943;51.410;7.564;2022-10-31T19:31:44;6.75;;;3.20;;
46222;SDS011;31943;51.410;7.564;2022-10-31T19:34:29;7.00;;;2.35;;
46222;SDS011;31943;51.410;7.564;2022-10-31T19:37:13;7.68;;;2.92;;
46222;SDS011;31943;51.410;7.564;2022-10-31T19:39:59;11.52;;;3.03;;
46222;SDS011;31943;51.410;7.564;2022-10-31T19:42:50;5.53;;;2.90;;
46222;SDS011;31943;51.410;7.564;2022-10-31T19:45:37;5.32;;;2.50;;
46222;SDS011;31943;51.410;7.564;2022-10-31T19:48:22;8.80;;;2.50;;
46222;SDS011;31943;51.410;7.564;2022-10-31T19:51:08;6.07;;;2.70;;
46222;SDS011;31943;51.410;7.564;2022-10-31T19:53:54;6.60;;;3.55;;
46222;SDS011;31943;51.410;7.564;2022-10-31T19:56:38;5.18;;;2.67;;
46222;SDS011;31943;51.410;7.564;2022-10-31T19:59:22;10.02;;;2.90;;
46222;SDS011;31943;51.410;7.564;2022-10-31T20:02:10;5.90;;;2.53;;
46222;SDS011;31943;51.410;7.564;2022-10-31T20:04:56;6.38;;;2.88;;
46222;SDS011;31943;51.410;7.564;2022-10-31T20:07:40;8.15;;;2.78;;
46222;SDS011;31943;51.410;7.564;2022-10-31T20:10:25;9.05;;;3.30;;
46222;SDS011;31943;51.410;7.564;2022-10-31T20:13:12;7.43;;;2.90;;
46222;SDS011;31943;51.410;7.564;2022-10-31T20:15:57;5.38;;;2.60;;
46222;SDS011;31943;51.410;7.564;2022-10-31T20:18:48;8.32;;;3.22;;
46222;SDS011;31943;51.410;7.564;2022-10-31T20:21:34;5.57;;;2.65;;
46222;SDS011;31943;51.410;7.564;2022-10-31T20:24:23;8.80;;;3.50;;
46222;SDS011;31943;51.410;7.564;2022-10-31T20:27:10;9.07;;;3.00;;
46222;SDS011;31943;51.410;7.564;2022-10-31T20:29:55;5.07;;;2.58;;
46222;SDS011;31943;51.410;7.564;2022-10-31T20:32:40;5.93;;;2.92;;
46222;SDS011;31943;51.410;7.564;2022-10-31T20:35:26;7.20;;;3.00;;
46222;SDS011;31943;51.410;7.564;2022-10-31T20:38:13;6.70;;;2.83;;
46222;SDS011;31943;51.410;7.564;2022-10-31T20:40:58;7.45;;;2.67;;
46222;SDS011;31943;51.410;7.564;2022-10-31T20:43:44;7.88;;;2.90;;
46222;SDS011;31943;51.410;7.564;2022-10-31T20:46:29;6.53;;;2.47;;
46222;SDS011;31943;51.410;7.564;2022-10-31T20:49:13;8.23;;;3.13;;
46222;SDS011;31943;51.410;7.564;2022-10-31T20:51:59;7.40;;;2.63;;
46222;SDS011;31943;51.410;7.564;2022-10-31T20:54:43;6.53;;;2.75;;
46222;SDS011;31943;51.410;7.564;2022-10-31T20:57:27;7.32;;;2.90;;
46222;SDS011;31943;51.410;7.564;2022-10-31T21:00:12;7.95;;;3.10;;
46222;SDS011;31943;51.410;7.564;2022-10-31T21:02:56;6.28;;;3.30;;
46222;SDS011;31943;51.410;7.564;2022-10-31T21:05:41;5.65;;;3.00;;
46222;SDS011;31943;51.410;7.564;2022-10-31T21:08:28;6.80;;;3.20;;
46222;SDS011;31943;51.410;7.564;2022-10-31T21:11:14;6.03;;;2.90;;
46222;SDS011;31943;51.410;7.564;2022-10-31T21:13:59;5.47;;;3.08;;
46222;SDS011;31943;51.410;7.564;2022-10-31T21:16:44;8.32;;;3.28;;
46222;SDS011;31943;51.410;7.564;2022-10-31T21:19:28;7.13;;;3.17;;
46222;SDS011;31943;51.410;7.564;2022-10-31T21:22:13;8.32;;;3.00;;
46222;SDS011;31943;51.410;7.564;2022-10-31T21:24:59;8.73;;;3.50;;
46222;SDS011;31943;51.410;7.564;2022-10-31T21:27:44;9.65;;;3.30;;
46222;SDS011;31943;51.410;7.564;2022-10-31T21:30:29;7.13;;;3.38;;
46222;SDS011;31943;51.410;7.564;2022-10-31T21:33:13;9.38;;;2.75;;
46222;SDS011;31943;51.410;7.564;2022-10-31T21:35:58;7.50;;;2.95;;
46222;SDS011;31943;51.410;7.564;2022-10-31T21:38:42;8.75;;;2.97;;
46222;SDS011;31943;51.410;7.564;2022-10-31T21:41:29;6.28;;;2.80;;
46222;SDS011;31943;51.410;7.564;2022-10-31T21:44:13;6.35;;;3.20;;
46222;SDS011;31943;51.410;7.564;2022-10-31T21:46:58;5.75;;;2.60;;
46222;SDS011;31943;51.410;7.564;2022-10-31T21:49:42;8.80;;;2.55;;
46222;SDS011;31943;51.410;7.564;2022-10-31T21:52:27;8.30;;;2.83;;
46222;SDS011;31943;51.410;7.564;2022-10-31T21:55:11;7.22;;;2.47;;
46222;SDS011;31943;51.410;7.564;2022-10-31T21:57:58;5.32;;;2.88;;
46222;SDS011;31943;51.410;7.564;2022-10-31T22:00:43;9.52;;;3.30;;
46222;SDS011;31943;51.410;7.564;2022-10-31T22:03:27;6.63;;;2.80;;
46222;SDS011;31943;51.410;7.564;2022-10-31T22:06:11;9.57;;;2.97;;
46222;SDS011;31943;51.410;7.564;2022-10-31T22:08:57;7.07;;;3.60;;
46222;SDS011;31943;51.410;7.564;2022-10-31T22:11:42;5.10;;;3.08;;
46222;SDS011;31943;51.410;7.564;2022-10-31T22:14:28;4.68;;;2.70;;
46222;SDS011;31943;51.410;7.564;2022-10-31T22:17:13;6.22;;;2.55;;
46222;SDS011;31943;51.410;7.564;2022-10-31T22:19:58;7.72;;;2.85;;
46222;SDS011;31943;51.410;7.564;2022-10-31T22:22:42;6.22;;;2.35;;
46222;SDS011;31943;51.410;7.564;2022-10-31T22:25:29;6.10;;;2.95;;
46222;SDS011;31943;51.410;7.564;2022-10-31T22:28:13;6.90;;;2.90;;
46222;SDS011;31943;51.410;7.564;2022-10-31T22:31:01;7.32;;;2.80;;
46222;SDS011;31943;51.410;7.564;2022-10-31T22:33:46;9.32;;;2.83;;
46222;SDS011;31943;51.410;7.564;2022-10-31T22:36:32;7.93;;;2.83;;
46222;SDS011;31943;51.410;7.564;2022-10-31T22:39:16;5.85;;;2.33;;
46222;SDS011;31943;51.410;7.564;2022-10-31T22:42:01;5.60;;;2.40;;
46222;SDS011;31943;51.410;7.564;2022-10-31T22:44:45;8.07;;;2.67;;
46222;SDS011;31943;51.410;7.564;2022-10-31T22:47:32;7.38;;;2.83;;
46222;SDS011;31943;51.410;7.564;2022-10-31T22:50:17;8.02;;;2.72;;
46222;SDS011;31943;51.410;7.564;2022-10-31T22:53:02;7.10;;;3.10;;
46222;SDS011;31943;51.410;7.564;2022-10-31T22:55:48;7.70;;;2.80;;
46222;SDS011;31943;51.410;7.564;2022-10-31T22:58:32;7.00;;;2.60;;
46222;SDS011;31943;51.410;7.564;2022-10-31T23:01:17;6.15;;;2.63;;
46222;SDS011;31943;51.410;7.564;2022-10-31T23:04:05;6.03;;;2.83;;
46222;SDS011;31943;51.410;7.564;2022-10-31T23:07:03;7.18;;;2.95;;
46222;SDS011;31943;51.410;7.564;2022-10-31T23:09:49;9.85;;;3.08;;
46222;SDS011;31943;51.410;7.564;2022-10-31T23:12:33;7.70;;;2.92;;
46222;SDS011;31943;51.410;7.564;2022-10-31T23:15:18;12.52;;;3.00;;
46222;SDS011;31943;51.410;7.564;2022-10-31T23:18:03;7.40;;;2.78;;
46222;SDS011;31943;51.410;7.564;2022-10-31T23:21:00;11.18;;;2.92;;
46222;SDS011;31943;51.410;7.564;2022-10-31T23:23:47;8.15;;;2.88;;
46222;SDS011;31943;51.410;7.564;2022-10-31T23:26:34;8.25;;;2.83;;
46222;SDS011;31943;51.410;7.564;2022-10-31T23:29:20;9.90;;;2.92;;
46222;SDS011;31943;51.410;7.564;2022-10-31T23:32:12;9.70;;;2.90;;
46222;SDS011;31943;51.410;7.564;2022-10-31T23:35:04;6.90;;;3.33;;
46222;SDS011;31943;51.410;7.564;2022-10-31T23:37:57;5.10;;;2.83;;
46222;SDS011;31943;51.410;7.564;2022-10-31T23:40:43;8.52;;;3.13;;
46222;SDS011;31943;51.410;7.564;2022-10-31T23:43:30;6.65;;;2.88;;
46222;SDS011;31943;51.410;7.564;2022-10-31T23:46:19;8.93;;;3.22;;
46222;SDS011;31943;51.410;7.564;2022-10-31T23:49:07;4.35;;;2.67;;
46222;SDS011;31943;51.410;7.564;2022-10-31T23:51:52;9.55;;;2.90;;
46222;SDS011;31943;51.410;7.564;2022-10-31T23:54:37;9.65;;;3.20;;
46222;SDS011;31943;51.410;7.564;2022-10-31T23:57:22;10.75;;;3.20;;
